Whidbey Island Naval Air Station, Ault Field, Airport Oak Harbor US
ICAO: KNUW
IATA: NUW
Category: Medium
Scheduled Services: No

Elevation: 47 ft
TransAlt. 18000 ft.

Airport Communications:
APP/DEP:118.2
ATIS:134.15
CLNC DEL:124.15
GND:121.75
BASE OPS:35.01
PMSV METRO:34.34
TWR:127.9

KNUW Zoom In..

If you have problems with the map follow the link
https://www.worldairports.se/pages/airport.php?
ICAO=KNUW

Runways:

(A) RW 07 length 8000 ft width 200 ft
---- / hdg 69

(B) RW 14 length 8001 ft width 200 ft
ILS 110.10 / hdg 137

(C) RW 25 length 8000 ft width 200 ft
---- / hdg 249

(D) RW 32 length 8001 ft width 200 ft
---- / hdg 317

Location; KNUW
Day. 22 / Time. 16.56 Zulu
* Altimeter: 29.90
* Temperature: 07° c. 44.6°f.
* Wind from: 150° Speed 25 kn with Gusts up to 36 kn.
Dewpoint: 00° c.
Visibility: 10 Statute Miles.
Clouds: Broken 2400 ft.
Clouds: Broken 8000 ft.
Clouds: Overcast 1000 ft.

KNUW 221656Z 15025G36KT 10SM BKN024 BKN080 OVC100 07/00 A2990 RMK AO2 PK WND 15037/1619 SLP124 T00670000 $


Wind From 150°
Speed 25 kn.

 
 
jpsmedia.com for Web Design worldairports.se 2019   terms of use